createdAt,value
2023-05-14T00:01:53.986Z,101125.88
2023-05-14T00:04:21.137Z,101130.41
2023-05-14T00:06:48.492Z,101123.31
2023-05-14T00:09:15.853Z,101118.03
2023-05-14T00:11:43.186Z,101121.72
2023-05-14T00:14:10.377Z,101109.22
2023-05-14T00:16:37.599Z,101109.31
2023-05-14T00:19:04.762Z,101110.38
2023-05-14T00:21:32.376Z,101121.28
2023-05-14T00:24:03.157Z,101108.91
2023-05-14T00:26:30.272Z,101112.56
2023-05-14T00:28:58.026Z,101103.63
2023-05-14T00:31:25.235Z,101108.28
2023-05-14T00:33:52.594Z,101094.94
2023-05-14T00:36:19.860Z,101092.25
2023-05-14T00:38:47.009Z,101090.72
2023-05-14T00:41:14.113Z,101091.84
2023-05-14T00:43:41.672Z,101094.53
2023-05-14T00:46:09.244Z,101087.41
2023-05-14T00:48:36.809Z,101085.69
2023-05-14T00:51:04.785Z,101086.91
2023-05-14T00:53:32.035Z,101078.22
2023-05-14T00:55:59.283Z,101083.81
2023-05-14T00:58:26.956Z,101081.22
2023-05-14T01:00:54.385Z,101072.28
2023-05-14T01:03:21.642Z,101077.91
2023-05-14T01:06:14.359Z,101079.00
2023-05-14T01:09:06.754Z,101068.22
2023-05-14T01:12:12.813Z,101069.19
2023-05-14T01:14:57.491Z,101068.34
2023-05-14T01:17:30.485Z,101066.38
2023-05-14T01:19:58.271Z,101059.91
2023-05-14T01:22:25.574Z,101060.66
2023-05-14T01:24:52.706Z,101060.66
2023-05-14T01:27:37.204Z,101057.00
2023-05-14T01:30:41.413Z,101055.28
2023-05-14T01:33:14.813Z,101052.59
2023-05-14T01:35:42.945Z,101054.75
2023-05-14T01:38:14.386Z,101056.81
2023-05-14T01:40:42.268Z,101051.78
2023-05-14T01:43:09.594Z,101052.97
2023-05-14T01:45:37.485Z,101050.41
2023-05-14T01:48:06.682Z,101037.06
2023-05-14T01:50:34.523Z,101049.66
2023-05-14T01:53:01.627Z,101041.56
2023-05-14T01:55:28.811Z,101036.41
2023-05-14T01:57:56.713Z,101043.66
2023-05-14T02:00:27.747Z,101048.94
2023-05-14T02:02:54.888Z,101041.06
2023-05-14T02:05:23.995Z,101043.66
2023-05-14T02:07:51.413Z,101038.38
2023-05-14T02:10:18.776Z,101038.38
2023-05-14T02:12:49.777Z,101033.97
2023-05-14T02:15:17.629Z,101023.19
2023-05-14T02:17:44.724Z,101024.06
2023-05-14T02:20:12.965Z,101015.13
2023-05-14T02:22:45.721Z,101012.31
2023-05-14T02:25:13.145Z,101016.72
2023-05-14T02:27:45.416Z,101005.94
2023-05-14T02:30:22.149Z,101010.38
2023-05-14T02:32:49.432Z,101004.25
2023-05-14T02:35:16.657Z,101008.78
2023-05-14T02:37:43.642Z,101007.16
2023-05-14T02:40:11.306Z,100998.47
2023-05-14T02:42:38.315Z,100988.56
2023-05-14T02:45:06.500Z,100995.78
2023-05-14T02:47:36.108Z,100992.22
2023-05-14T02:50:06.467Z,100983.31
2023-05-14T02:52:33.681Z,100985.09
2023-05-14T02:55:00.862Z,100978.88
2023-05-14T02:57:28.689Z,100981.56
2023-05-14T02:59:56.341Z,100979.00
2023-05-14T03:02:24.499Z,100984.38
2023-05-14T03:04:52.548Z,100982.66
2023-05-14T03:07:19.873Z,100969.31
2023-05-14T03:09:46.948Z,100980.94
2023-05-14T03:12:14.538Z,100979.22
2023-05-14T03:14:41.605Z,100974.81
2023-05-14T03:17:08.604Z,100974.91
2023-05-14T03:19:35.923Z,100975.78
2023-05-14T03:22:03.226Z,100971.25
2023-05-14T03:24:30.407Z,100966.00
2023-05-14T03:26:57.506Z,100971.47
2023-05-14T03:29:25.761Z,100972.59
2023-05-14T03:31:54.453Z,100969.03
2023-05-14T03:34:21.733Z,100958.38
2023-05-14T03:36:48.913Z,100963.75
2023-05-14T03:39:19.706Z,100963.75
2023-05-14T03:41:47.965Z,100960.09
2023-05-14T03:44:15.269Z,100959.22
2023-05-14T03:46:42.746Z,100961.81
2023-05-14T03:49:10.622Z,100951.06
2023-05-14T03:51:37.816Z,100950.06
2023-05-14T03:54:06.967Z,100954.59
2023-05-14T03:56:34.161Z,100943.00
2023-05-14T03:59:01.689Z,100944.81
2023-05-14T04:01:28.960Z,100940.53
2023-05-14T04:03:58.334Z,100948.59
2023-05-14T04:06:26.098Z,100947.75
2023-05-14T04:08:53.832Z,100943.22
2023-05-14T04:11:21.790Z,100936.00
2023-05-14T04:13:49.970Z,100936.09
2023-05-14T04:16:17.174Z,100938.78
2023-05-14T04:18:44.374Z,100943.09
2023-05-14T04:21:11.479Z,100940.28
2023-05-14T04:23:38.712Z,100926.09
2023-05-14T04:26:06.493Z,100926.84
2023-05-14T04:28:33.869Z,100930.38
2023-05-14T04:31:01.382Z,100927.78
2023-05-14T04:33:28.453Z,100928.69
2023-05-14T04:35:56.056Z,100931.47
2023-05-14T04:38:23.352Z,100931.47
2023-05-14T04:40:50.439Z,100931.47
2023-05-14T04:43:17.791Z,100936.84
2023-05-14T04:45:44.954Z,100931.38
2023-05-14T04:48:12.902Z,100939.44
2023-05-14T04:50:40.258Z,100939.44
2023-05-14T04:53:07.400Z,100934.91
2023-05-14T04:55:34.493Z,100933.31
2023-05-14T04:58:01.834Z,100940.41
2023-05-14T05:00:31.180Z,100943.09
2023-05-14T05:02:58.622Z,100936.63
2023-05-14T05:05:26.323Z,100941.03
2023-05-14T05:07:53.689Z,100938.31
2023-05-14T05:10:21.888Z,100934.78
2023-05-14T05:12:49.448Z,100941.78
2023-05-14T05:15:16.646Z,100940.78
2023-05-14T05:17:43.696Z,100943.38
2023-05-14T05:20:11.764Z,100949.63
2023-05-14T05:22:38.892Z,100947.16
2023-05-14T05:25:06.477Z,100945.53
2023-05-14T05:27:33.696Z,100944.81
2023-05-14T05:30:02.452Z,100950.22
2023-05-14T05:32:31.377Z,100950.94
2023-05-14T05:34:58.480Z,100949.31
2023-05-14T05:37:25.494Z,100949.56
2023-05-14T05:39:52.585Z,100950.31
2023-05-14T05:42:19.926Z,100957.41
2023-05-14T05:44:47.087Z,100948.38
2023-05-14T05:47:14.159Z,100945.69
2023-05-14T05:49:43.240Z,100945.69
2023-05-14T05:52:10.501Z,100947.63
2023-05-14T05:54:39.923Z,100941.16
2023-05-14T05:57:07.422Z,100943.72
2023-05-14T05:59:34.805Z,100942.38
2023-05-14T06:02:02.352Z,100944.16
2023-05-14T06:04:29.469Z,100948.69
2023-05-14T06:06:56.806Z,100940.53
2023-05-14T06:09:24.092Z,100950.31
2023-05-14T06:11:51.451Z,100940.53
2023-05-14T06:14:18.648Z,100940.16
2023-05-14T06:16:45.815Z,100936.84
2023-05-14T06:19:13.138Z,100941.38
2023-05-14T06:21:40.456Z,100935.16
2023-05-14T06:24:07.862Z,100941.66
2023-05-14T06:26:35.058Z,100934.09
2023-05-14T06:29:02.268Z,100947.09
2023-05-14T06:31:29.365Z,100943.94
2023-05-14T06:33:56.538Z,100947.34
2023-05-14T06:36:23.634Z,100948.97
2023-05-14T06:38:50.775Z,100950.44
2023-05-14T06:41:17.994Z,100951.94
2023-05-14T06:43:45.114Z,100953.41
2023-05-14T06:46:12.134Z,100958.31
2023-05-14T06:48:39.223Z,100958.09
2023-05-14T06:51:06.489Z,100960.56
2023-05-14T06:53:34.005Z,100965.72
2023-05-14T06:56:01.294Z,100956.50
2023-05-14T06:58:28.506Z,100960.69
2023-05-14T07:00:56.106Z,100952.50
2023-05-14T07:03:23.378Z,100962.03
2023-05-14T07:05:51.235Z,100955.78
2023-05-14T07:08:18.439Z,100968.53
2023-05-14T07:10:46.019Z,100961.19
2023-05-14T07:13:13.791Z,100957.28
2023-05-14T07:15:40.959Z,100960.47
2023-05-14T07:18:08.186Z,100960.47
2023-05-14T07:20:35.374Z,100964.97
2023-05-14T07:23:02.628Z,100954.94
2023-05-14T07:25:29.801Z,100962.94
2023-05-14T07:27:56.956Z,100956.78
2023-05-14T07:30:24.645Z,100954.84
2023-05-14T07:32:52.029Z,100947.09
2023-05-14T07:35:19.373Z,100942.81
2023-05-14T07:37:47.326Z,100943.56
2023-05-14T07:40:15.498Z,100948.09
2023-05-14T07:42:42.586Z,100946.88
2023-05-14T07:45:10.245Z,100941.97
2023-05-14T07:47:37.440Z,100937.44
2023-05-14T07:50:05.065Z,100936.34
2023-05-14T07:52:33.158Z,100927.94
2023-05-14T07:55:01.662Z,100937.84
2023-05-14T07:57:29.634Z,100923.59
2023-05-14T07:59:57.298Z,100928.88
2023-05-14T08:02:25.128Z,100925.75
2023-05-14T08:04:52.926Z,100920.97
2023-05-14T08:07:20.276Z,100922.69
2023-05-14T08:09:47.813Z,100920.50
2023-05-14T08:12:19.249Z,100921.09
2023-05-14T08:14:46.733Z,100911.16
2023-05-14T08:17:14.062Z,100917.66
2023-05-14T08:19:41.743Z,100913.88
2023-05-14T08:22:08.955Z,100913.63
2023-05-14T08:24:36.179Z,100910.69
2023-05-14T08:27:04.042Z,100906.16
2023-05-14T08:29:31.494Z,100909.59
2023-05-14T08:32:00.333Z,100904.44
2023-05-14T08:34:31.210Z,100909.81
2023-05-14T08:36:59.633Z,100906.00
2023-05-14T08:39:26.744Z,100894.97
2023-05-14T08:41:57.975Z,100900.00
2023-05-14T08:44:37.962Z,100900.63
2023-05-14T08:47:05.897Z,100887.63
2023-05-14T08:49:43.623Z,100891.69
2023-05-14T08:52:11.536Z,100891.53
2023-05-14T08:54:40.877Z,100884.69
2023-05-14T08:57:11.813Z,100878.66
2023-05-14T08:59:39.366Z,100876.72
2023-05-14T09:02:07.257Z,100869.47
2023-05-14T09:04:35.099Z,100871.78
2023-05-14T09:07:04.220Z,100868.72
2023-05-14T09:09:34.529Z,100872.28
2023-05-14T09:12:02.445Z,100858.94
2023-05-14T09:14:29.641Z,100862.84
2023-05-14T09:16:57.238Z,100856.34
2023-05-14T09:19:25.008Z,100857.19
2023-05-14T09:21:52.271Z,100865.28
2023-05-14T09:24:25.380Z,100857.41
2023-05-14T09:26:58.323Z,100851.63
2023-05-14T09:29:26.672Z,100861.19
2023-05-14T09:31:55.217Z,100854.69
2023-05-14T09:34:25.449Z,100858.81
2023-05-14T09:37:05.936Z,100859.16
2023-05-14T09:39:36.495Z,100852.44
2023-05-14T09:42:04.305Z,100849.97
2023-05-14T09:44:32.013Z,100844.78
2023-05-14T09:46:59.303Z,100842.44
2023-05-14T09:49:26.493Z,100840.41
2023-05-14T09:51:53.702Z,100847.97
2023-05-14T09:54:21.278Z,100841.72
2023-05-14T09:56:48.866Z,100834.41
2023-05-14T09:59:16.228Z,100838.41
2023-05-14T10:01:44.624Z,100829.78
2023-05-14T10:04:12.944Z,100834.66
2023-05-14T10:06:42.577Z,100826.28
2023-05-14T10:09:13.848Z,100818.19
2023-05-14T10:11:50.275Z,100813.38
2023-05-14T10:14:41.696Z,100809.53
2023-05-14T10:17:18.149Z,100812.56
2023-05-14T10:19:54.842Z,100809.47
2023-05-14T10:22:24.624Z,100811.22
2023-05-14T10:24:52.726Z,100815.34
2023-05-14T10:27:26.775Z,100808.69
2023-05-14T10:29:55.525Z,100807.84
2023-05-14T10:32:25.882Z,100809.00
2023-05-14T10:34:53.920Z,100805.88
2023-05-14T10:37:26.468Z,100801.91
2023-05-14T10:40:02.580Z,100802.63
2023-05-14T10:42:37.659Z,100798.66
2023-05-14T10:45:08.415Z,100790.53
2023-05-14T10:47:42.225Z,100787.56
2023-05-14T10:50:11.809Z,100783.16
2023-05-14T10:52:43.518Z,100780.59
2023-05-14T10:55:15.463Z,100781.06
2023-05-14T10:57:46.514Z,100780.78
2023-05-14T11:00:15.632Z,100773.78
2023-05-14T11:02:45.172Z,100773.91
2023-05-14T11:05:17.281Z,100766.94
2023-05-14T11:07:50.494Z,100771.91
2023-05-14T11:10:21.040Z,100771.91
2023-05-14T11:12:55.134Z,100769.22
2023-05-14T11:15:29.181Z,100770.06
2023-05-14T11:17:56.584Z,100774.91
2023-05-14T11:20:24.069Z,100766.38
2023-05-14T11:22:54.019Z,100762.78
2023-05-14T11:25:22.871Z,100765.75
2023-05-14T11:27:50.486Z,100763.06
2023-05-14T11:30:20.567Z,100753.25
2023-05-14T11:32:49.461Z,100754.25
2023-05-14T11:35:17.836Z,100744.41
2023-05-14T11:37:52.466Z,100737.31
2023-05-14T11:40:20.115Z,100740.16
2023-05-14T11:42:47.177Z,100741.13
2023-05-14T11:45:27.172Z,100733.91
2023-05-14T11:47:54.947Z,100740.00
2023-05-14T11:50:23.300Z,100729.19
2023-05-14T11:52:51.171Z,100731.78
2023-05-14T11:55:18.533Z,100719.09
2023-05-14T11:57:46.503Z,100717.09
2023-05-14T12:00:16.967Z,100719.53
2023-05-14T12:02:44.384Z,100715.69
2023-05-14T12:05:13.632Z,100714.56
2023-05-14T12:07:44.925Z,100710.75
2023-05-14T12:10:13.717Z,100709.56
2023-05-14T12:12:41.080Z,100718.28
2023-05-14T12:15:18.531Z,100704.34
2023-05-14T12:17:52.301Z,100702.06
2023-05-14T12:20:19.604Z,100699.09
2023-05-14T12:22:46.804Z,100698.94
2023-05-14T12:25:14.435Z,100701.34
2023-05-14T12:27:44.792Z,100697.81
2023-05-14T12:30:27.505Z,100697.53
2023-05-14T12:32:54.967Z,100694.94
2023-05-14T12:35:23.114Z,100692.97
2023-05-14T12:37:50.730Z,100684.84
2023-05-14T12:40:18.228Z,100689.25
2023-05-14T12:42:45.832Z,100685.41
2023-05-14T12:45:12.955Z,100690.53
2023-05-14T12:47:40.114Z,100684.97
2023-05-14T12:50:08.037Z,100693.09
2023-05-14T12:52:40.744Z,100679.84
2023-05-14T12:55:09.375Z,100671.88
2023-05-14T12:57:39.314Z,100676.44
2023-05-14T13:00:13.720Z,100682.72
2023-05-14T13:02:42.525Z,100676.72
2023-05-14T13:05:12.501Z,100676.00
2023-05-14T13:07:40.094Z,100675.59
2023-05-14T13:10:09.017Z,100664.06
2023-05-14T13:12:36.335Z,100667.88
2023-05-14T13:15:03.627Z,100662.47
2023-05-14T13:17:32.607Z,100667.19
2023-05-14T13:19:59.621Z,100663.03
2023-05-14T13:22:26.809Z,100656.66
2023-05-14T13:24:54.738Z,100658.63
2023-05-14T13:27:21.878Z,100661.34
2023-05-14T13:29:48.935Z,100661.63
2023-05-14T13:32:16.102Z,100662.91
2023-05-14T13:34:44.171Z,100661.91
2023-05-14T13:37:11.470Z,100653.09
2023-05-14T13:39:40.299Z,100643.38
2023-05-14T13:42:11.373Z,100643.78
2023-05-14T13:44:38.522Z,100647.78
2023-05-14T13:47:05.998Z,100653.44
2023-05-14T13:49:33.130Z,100643.91
2023-05-14T13:52:00.383Z,100649.75
2023-05-14T13:54:45.410Z,100649.88
2023-05-14T13:58:02.328Z,100656.69
2023-05-14T14:05:09.237Z,100640.72
2023-05-14T14:10:57.802Z,100627.38
2023-05-14T14:13:31.209Z,100621.13
2023-05-14T14:15:58.326Z,100615.00
2023-05-14T14:18:28.086Z,100611.28
2023-05-14T14:20:55.985Z,100612.44
2023-05-14T14:23:22.992Z,100608.75
2023-05-14T14:25:50.126Z,100613.13
2023-05-14T14:28:17.410Z,100600.63
2023-05-14T14:30:44.771Z,100600.75
2023-05-14T14:33:11.909Z,100588.13
2023-05-14T14:35:39.243Z,100583.59
2023-05-14T14:38:06.364Z,100582.75
2023-05-14T14:40:34.850Z,100574.63
2023-05-14T14:43:03.487Z,100572.34
2023-05-14T14:45:30.922Z,100578.72
2023-05-14T14:48:39.946Z,100581.72
2023-05-14T14:51:11.211Z,100585.81
2023-05-14T14:54:10.872Z,100583.84
2023-05-14T14:56:59.308Z,100583.25
2023-05-14T14:59:54.784Z,100578.72
2023-05-14T15:02:22.214Z,100582.25
2023-05-14T15:04:49.519Z,100583.09
2023-05-14T15:07:22.762Z,100587.53
2023-05-14T15:09:50.024Z,100585.81
2023-05-14T15:12:17.225Z,100581.25
2023-05-14T15:14:44.407Z,100583.09
2023-05-14T15:17:12.075Z,100588.50
2023-05-14T15:19:39.218Z,100578.97
2023-05-14T15:22:06.374Z,100573.00
2023-05-14T15:24:33.528Z,100570.44
2023-05-14T15:27:00.762Z,100575.97
2023-05-14T15:29:28.769Z,100582.50
2023-05-14T15:31:56.043Z,100576.25
2023-05-14T15:34:23.244Z,100573.72
2023-05-14T15:36:50.662Z,100578.50
2023-05-14T15:39:17.863Z,100577.66
2023-05-14T15:41:45.548Z,100578.66
2023-05-14T15:44:12.630Z,100583.03
2023-05-14T15:46:39.745Z,100580.63
2023-05-14T15:49:06.893Z,100578.78
2023-05-14T15:51:34.736Z,100584.59
2023-05-14T15:54:02.065Z,100579.47
2023-05-14T15:56:29.423Z,100581.44
2023-05-14T15:58:56.736Z,100583.28
2023-05-14T16:01:23.969Z,100586.09
2023-05-14T16:03:53.198Z,100588.78
2023-05-14T16:06:20.622Z,100585.25
2023-05-14T16:08:47.828Z,100586.22
2023-05-14T16:11:15.004Z,100588.91
2023-05-14T16:13:42.062Z,100587.38
2023-05-14T16:16:09.163Z,100584.66
2023-05-14T16:18:36.744Z,100592.03
2023-05-14T16:21:03.853Z,100593.16
2023-05-14T16:23:31.119Z,100597.69
2023-05-14T16:25:58.306Z,100599.53
2023-05-14T16:28:25.806Z,100598.13
2023-05-14T16:30:52.837Z,100600.94
2023-05-14T16:33:19.911Z,100592.97
2023-05-14T16:35:47.043Z,100596.91
2023-05-14T16:38:14.084Z,100598.91
2023-05-14T16:40:41.847Z,100604.44
2023-05-14T16:43:08.991Z,100615.63
2023-05-14T16:45:37.504Z,100614.19
2023-05-14T16:48:05.158Z,100613.59
2023-05-14T16:50:32.504Z,100608.31
2023-05-14T16:52:59.588Z,100605.91
2023-05-14T16:55:39.035Z,100595.09
2023-05-14T16:58:30.744Z,100599.66
2023-05-14T17:00:59.047Z,100588.97
2023-05-14T17:07:24.194Z,100586.69
2023-05-14T17:10:48.304Z,100583.25
2023-05-14T17:13:58.417Z,100578.88
2023-05-14T17:22:15.441Z,100590.44
2023-05-14T17:24:45.279Z,100592.94
2023-05-14T17:27:13.085Z,100595.75
2023-05-14T17:29:41.043Z,100601.56
2023-05-14T17:32:08.188Z,100594.47
2023-05-14T17:34:35.219Z,100592.88
2023-05-14T17:37:02.366Z,100591.16
2023-05-14T17:39:43.171Z,100593.84
2023-05-14T17:42:11.036Z,100594.72
2023-05-14T17:44:38.106Z,100598.38
2023-05-14T17:47:06.776Z,100595.84
2023-05-14T17:49:34.366Z,100600.38
2023-05-14T17:52:02.085Z,100594.13
2023-05-14T17:54:29.764Z,100598.19
2023-05-14T17:56:57.073Z,100606.38
2023-05-14T17:59:24.523Z,100601.16
2023-05-14T18:01:51.707Z,100605.81
2023-05-14T18:04:18.830Z,100599.56
2023-05-14T18:06:48.156Z,100607.53
2023-05-14T18:09:15.782Z,100603.97
2023-05-14T18:11:43.132Z,100598.56
2023-05-14T18:14:10.356Z,100595.03
2023-05-14T18:16:37.907Z,100602.25
2023-05-14T18:19:05.205Z,100604.94
2023-05-14T18:21:32.602Z,100607.78
2023-05-14T18:23:59.693Z,100609.75
2023-05-14T18:26:26.764Z,100612.59
2023-05-14T18:28:53.938Z,100618.19
2023-05-14T18:31:21.280Z,100617.31
2023-05-14T18:33:48.506Z,100623.69
2023-05-14T18:36:15.721Z,100611.31
2023-05-14T18:38:43.205Z,100624.78
2023-05-14T18:41:39.225Z,100622.94
2023-05-14T18:49:17.618Z,100620.66
2023-05-14T18:51:50.524Z,100618.09
2023-05-14T18:54:24.411Z,100630.22
2023-05-14T18:56:52.646Z,100629.50
2023-05-14T18:59:20.945Z,100629.75
2023-05-14T19:01:48.320Z,100625.22
2023-05-14T19:04:20.532Z,100621.66
2023-05-14T19:07:03.103Z,100629.75
2023-05-14T19:09:30.271Z,100640.66
2023-05-14T19:15:27.799Z,100639.91
2023-05-14T19:17:57.733Z,100649.00
2023-05-14T19:20:24.990Z,100655.47
2023-05-14T19:22:52.209Z,100654.72
2023-05-14T19:25:19.246Z,100661.00
2023-05-14T19:27:50.648Z,100671.63
2023-05-14T19:30:19.474Z,100684.63
2023-05-14T19:32:46.581Z,100705.94
2023-05-14T19:35:13.638Z,100720.25
2023-05-14T19:37:40.743Z,100724.28
2023-05-14T19:40:09.103Z,100726.25
2023-05-14T19:42:36.279Z,100711.06
2023-05-14T19:45:04.138Z,100708.63
2023-05-14T19:47:31.319Z,100716.22
2023-05-14T19:49:58.660Z,100726.47
2023-05-14T19:52:25.786Z,100730.16
2023-05-14T19:54:52.889Z,100733.84
2023-05-14T19:57:20.389Z,100725.00
2023-05-14T19:59:54.698Z,100724.91
2023-05-14T20:02:22.079Z,100729.69
2023-05-14T20:04:49.631Z,100721.47
2023-05-14T20:07:17.324Z,100700.53
2023-05-14T20:09:44.448Z,100687.84
2023-05-14T20:12:18.006Z,100694.69
2023-05-14T20:14:45.087Z,100694.78
2023-05-14T20:17:12.476Z,100705.53
2023-05-14T20:19:39.736Z,100706.53
2023-05-14T20:22:06.828Z,100718.53
2023-05-14T20:24:33.888Z,100718.91
2023-05-14T20:27:00.963Z,100716.22
2023-05-14T20:29:28.121Z,100704.47
2023-05-14T20:31:55.179Z,100711.44
2023-05-14T20:34:22.243Z,100712.41
2023-05-14T20:36:49.320Z,100715.22
2023-05-14T20:39:16.771Z,100711.94
2023-05-14T20:41:45.690Z,100704.09
2023-05-14T20:44:12.741Z,100700.56
2023-05-14T20:47:03.209Z,100702.13
2023-05-14T20:58:42.305Z,100663.50
2023-05-14T21:06:02.418Z,100677.06
2023-05-14T21:08:42.908Z,100676.34
2023-05-14T21:11:34.138Z,100678.41
2023-05-14T21:14:20.714Z,100670.81
2023-05-14T21:16:48.626Z,100680.97
2023-05-14T21:19:18.884Z,100665.69
2023-05-14T21:21:47.507Z,100657.72
2023-05-14T21:24:16.760Z,100648.19
2023-05-14T21:26:43.856Z,100655.28
2023-05-14T21:29:11.441Z,100669.94
2023-05-14T21:32:01.227Z,100681.69
2023-05-14T21:34:49.210Z,100685.84
2023-05-14T21:37:39.787Z,100692.94
2023-05-14T21:40:23.143Z,100684.88
2023-05-14T21:42:50.265Z,100667.75
2023-05-14T21:45:17.516Z,100662.25
2023-05-14T21:47:44.728Z,100658.59
2023-05-14T21:50:13.118Z,100651.59
2023-05-14T21:52:41.329Z,100656.25
2023-05-14T21:55:09.430Z,100663.44
2023-05-14T21:57:53.126Z,100662.81
2023-05-14T22:00:41.007Z,100661.94
2023-05-14T22:03:18.527Z,100662.09
2023-05-14T22:06:05.925Z,100662.94
2023-05-14T22:08:33.282Z,100659.41
2023-05-14T22:11:45.870Z,100658.50
2023-05-14T22:15:31.181Z,100646.19
2023-05-14T22:18:43.213Z,100653.50
2023-05-14T22:22:03.390Z,100658.13
2023-05-14T22:24:55.710Z,100649.13
2023-05-14T22:27:32.301Z,100645.69
2023-05-14T22:30:13.933Z,100640.06
2023-05-14T22:32:41.381Z,100635.53
2023-05-14T22:35:31.390Z,100630.91
2023-05-14T22:38:11.340Z,100624.69
2023-05-14T22:41:07.947Z,100628.22
2023-05-14T22:44:20.074Z,100621.84
2023-05-14T22:47:42.332Z,100631.75
2023-05-14T22:51:15.988Z,100630.28
2023-05-14T22:53:55.893Z,100626.84
2023-05-14T22:57:04.656Z,100631.25
2023-05-14T23:04:08.600Z,100635.06
2023-05-14T23:06:44.311Z,100637.13
2023-05-14T23:09:25.698Z,100637.38
2023-05-14T23:14:56.581Z,100625.97
2023-05-14T23:18:24.781Z,100637.00
2023-05-14T23:21:31.146Z,100614.84
2023-05-14T23:25:12.519Z,100615.81
2023-05-14T23:28:16.580Z,100613.13
2023-05-14T23:31:30.151Z,100608.84
2023-05-14T23:34:30.226Z,100602.63
2023-05-14T23:37:57.602Z,100603.84
2023-05-14T23:41:22.831Z,100604.09
2023-05-14T23:44:21.715Z,100596.00
2023-05-14T23:57:47.242Z,100591.81
